sensor_id;sensor_type;location;lat;lon;timestamp;pressure;altitude;pressure_sealevel;temperature;humidity
54600;BME280;40500;51.084;16.958;2022-09-09T00:00:49;99937.42;;;15.72;86.15
54600;BME280;40500;51.084;16.958;2022-09-09T00:03:27;99939.98;;;15.70;86.12
54600;BME280;40500;51.084;16.958;2022-09-09T00:06:08;99943.69;;;15.70;86.22
54600;BME280;40500;51.084;16.958;2022-09-09T00:08:51;99944.91;;;15.66;86.22
54600;BME280;40500;51.084;16.958;2022-09-09T00:11:28;99945.77;;;15.62;86.13
54600;BME280;40500;51.084;16.958;2022-09-09T00:14:06;99943.08;;;15.60;86.10
54600;BME280;40500;51.084;16.958;2022-09-09T00:16:46;99940.45;;;15.55;86.20
54600;BME280;40500;51.084;16.958;2022-09-09T00:19:23;99939.73;;;15.51;86.18
54600;BME280;40500;51.084;16.958;2022-09-09T00:22:04;99934.66;;;15.47;85.98
54600;BME280;40500;51.084;16.958;2022-09-09T00:24:41;99938.34;;;15.42;85.90
54600;BME280;40500;51.084;16.958;2022-09-09T00:27:19;99938.73;;;15.41;86.01
54600;BME280;40500;51.084;16.958;2022-09-09T00:29:55;99936.61;;;15.42;86.01
54600;BME280;40500;51.084;16.958;2022-09-09T00:32:31;99939.08;;;15.42;86.12
54600;BME280;40500;51.084;16.958;2022-09-09T00:35:12;99938.53;;;15.42;86.19
54600;BME280;40500;51.084;16.958;2022-09-09T00:37:46;99938.70;;;15.42;86.19
54600;BME280;40500;51.084;16.958;2022-09-09T00:40:26;99943.14;;;15.42;86.13
54600;BME280;40500;51.084;16.958;2022-09-09T00:43:16;99939.45;;;15.38;86.18
54600;BME280;40500;51.084;16.958;2022-09-09T00:46:11;99938.98;;;15.36;86.23
54600;BME280;40500;51.084;16.958;2022-09-09T00:48:53;99938.08;;;15.32;86.14
54600;BME280;40500;51.084;16.958;2022-09-09T00:51:39;99938.51;;;15.31;86.20
54600;BME280;40500;51.084;16.958;2022-09-09T00:54:31;99940.66;;;15.30;86.29
54600;BME280;40500;51.084;16.958;2022-09-09T00:57:12;99939.02;;;15.27;86.31
54600;BME280;40500;51.084;16.958;2022-09-09T00:59:48;99938.66;;;15.23;86.23
54600;BME280;40500;51.084;16.958;2022-09-09T01:02:27;99940.04;;;15.19;86.18
54600;BME280;40500;51.084;16.958;2022-09-09T01:05:05;99944.98;;;15.15;86.13
54600;BME280;40500;51.084;16.958;2022-09-09T01:07:37;99942.70;;;15.11;86.20
54600;BME280;40500;51.084;16.958;2022-09-09T01:10:17;99946.44;;;15.06;86.02
54600;BME280;40500;51.084;16.958;2022-09-09T01:12:53;99948.23;;;15.00;85.86
54600;BME280;40500;51.084;16.958;2022-09-09T01:15:29;99945.35;;;14.98;85.99
54600;BME280;40500;51.084;16.958;2022-09-09T01:18:05;99945.56;;;14.97;85.96
54600;BME280;40500;51.084;16.958;2022-09-09T01:20:59;99945.42;;;14.96;86.04
54600;BME280;40500;51.084;16.958;2022-09-09T01:23:44;99945.61;;;14.96;86.13
54600;BME280;40500;51.084;16.958;2022-09-09T01:26:23;99949.67;;;14.95;86.08
54600;BME280;40500;51.084;16.958;2022-09-09T01:28:56;99952.52;;;14.95;86.27
54600;BME280;40500;51.084;16.958;2022-09-09T01:31:29;99954.81;;;14.95;86.36
54600;BME280;40500;51.084;16.958;2022-09-09T01:34:00;99959.42;;;14.94;86.34
54600;BME280;40500;51.084;16.958;2022-09-09T01:36:38;99967.39;;;14.94;86.29
54600;BME280;40500;51.084;16.958;2022-09-09T01:39:12;99964.77;;;14.93;86.42
54600;BME280;40500;51.084;16.958;2022-09-09T01:41:47;99964.79;;;14.93;86.47
54600;BME280;40500;51.084;16.958;2022-09-09T01:44:20;99960.90;;;14.93;86.46
54600;BME280;40500;51.084;16.958;2022-09-09T01:46:51;99962.23;;;14.90;86.51
54600;BME280;40500;51.084;16.958;2022-09-09T01:49:22;99963.04;;;14.88;86.49
54600;BME280;40500;51.084;16.958;2022-09-09T01:51:57;99964.20;;;14.85;86.50
54600;BME280;40500;51.084;16.958;2022-09-09T01:54:29;99966.72;;;14.84;86.48
54600;BME280;40500;51.084;16.958;2022-09-09T01:57:11;99968.54;;;14.83;86.57
54600;BME280;40500;51.084;16.958;2022-09-09T02:00:04;99968.06;;;14.77;86.46
54600;BME280;40500;51.084;16.958;2022-09-09T02:02:45;99970.32;;;14.74;86.51
54600;BME280;40500;51.084;16.958;2022-09-09T02:05:27;99971.44;;;14.68;86.50
54600;BME280;40500;51.084;16.958;2022-09-09T02:08:07;99975.09;;;14.65;86.37
54600;BME280;40500;51.084;16.958;2022-09-09T02:10:45;99974.77;;;14.64;86.36
54600;BME280;40500;51.084;16.958;2022-09-09T02:13:21;99980.16;;;14.61;86.40
54600;BME280;40500;51.084;16.958;2022-09-09T02:15:55;99981.42;;;14.60;86.50
54600;BME280;40500;51.084;16.958;2022-09-09T02:18:32;99981.27;;;14.59;86.49
54600;BME280;40500;51.084;16.958;2022-09-09T02:21:07;99979.98;;;14.56;86.50
54600;BME280;40500;51.084;16.958;2022-09-09T02:23:43;99979.90;;;14.53;86.55
54600;BME280;40500;51.084;16.958;2022-09-09T02:26:21;99982.08;;;14.47;86.56
54600;BME280;40500;51.084;16.958;2022-09-09T02:28:57;99980.80;;;14.43;86.48
54600;BME280;40500;51.084;16.958;2022-09-09T02:31:31;99979.48;;;14.41;86.51
54600;BME280;40500;51.084;16.958;2022-09-09T02:34:06;99978.02;;;14.37;86.53
54600;BME280;40500;51.084;16.958;2022-09-09T02:36:45;99982.23;;;14.34;86.51
54600;BME280;40500;51.084;16.958;2022-09-09T02:39:19;99985.45;;;14.23;86.29
54600;BME280;40500;51.084;16.958;2022-09-09T02:41:51;99987.34;;;14.10;86.05
54600;BME280;40500;51.084;16.958;2022-09-09T02:44:23;99989.41;;;14.07;86.04
54600;BME280;40500;51.084;16.958;2022-09-09T02:47:13;99991.38;;;14.01;85.98
54600;BME280;40500;51.084;16.958;2022-09-09T02:49:59;99986.81;;;13.96;85.81
54600;BME280;40500;51.084;16.958;2022-09-09T02:52:36;99988.81;;;13.94;85.88
54600;BME280;40500;51.084;16.958;2022-09-09T02:55:16;99986.13;;;13.90;85.89
54600;BME280;40500;51.084;16.958;2022-09-09T02:57:52;99985.20;;;13.82;85.75
54600;BME280;40500;51.084;16.958;2022-09-09T03:00:28;99987.05;;;13.79;85.72
54600;BME280;40500;51.084;16.958;2022-09-09T03:02:59;99990.48;;;13.77;85.66
54600;BME280;40500;51.084;16.958;2022-09-09T03:05:32;99993.13;;;13.76;85.76
54600;BME280;40500;51.084;16.958;2022-09-09T03:08:06;99994.27;;;13.74;85.69
54600;BME280;40500;51.084;16.958;2022-09-09T03:10:37;99997.52;;;13.72;85.61
54600;BME280;40500;51.084;16.958;2022-09-09T03:13:11;100001.24;;;13.71;85.65
54600;BME280;40500;51.084;16.958;2022-09-09T03:15:42;100000.74;;;13.71;85.67
54600;BME280;40500;51.084;16.958;2022-09-09T03:18:22;100008.13;;;13.71;85.75
54600;BME280;40500;51.084;16.958;2022-09-09T03:20:53;100010.34;;;13.68;85.64
54600;BME280;40500;51.084;16.958;2022-09-09T03:23:27;100010.02;;;13.62;85.62
54600;BME280;40500;51.084;16.958;2022-09-09T03:26:05;100007.18;;;13.57;85.52
54600;BME280;40500;51.084;16.958;2022-09-09T03:28:46;100008.52;;;13.49;85.45
54600;BME280;40500;51.084;16.958;2022-09-09T03:31:20;100008.59;;;13.41;85.22
54600;BME280;40500;51.084;16.958;2022-09-09T03:33:53;100010.11;;;13.38;85.28
54600;BME280;40500;51.084;16.958;2022-09-09T03:36:28;100006.60;;;13.38;85.27
54600;BME280;40500;51.084;16.958;2022-09-09T03:39:00;100012.20;;;13.38;85.42
54600;BME280;40500;51.084;16.958;2022-09-09T03:41:32;100016.09;;;13.38;85.51
54600;BME280;40500;51.084;16.958;2022-09-09T03:44:03;100023.11;;;13.38;85.76
54600;BME280;40500;51.084;16.958;2022-09-09T03:46:36;100021.48;;;13.40;86.11
54600;BME280;40500;51.084;16.958;2022-09-09T03:49:07;100020.37;;;13.41;86.15
54600;BME280;40500;51.084;16.958;2022-09-09T03:51:41;100020.71;;;13.42;86.41
54600;BME280;40500;51.084;16.958;2022-09-09T03:54:13;100020.69;;;13.42;86.50
54600;BME280;40500;51.084;16.958;2022-09-09T03:56:46;100015.63;;;13.42;86.60
54600;BME280;40500;51.084;16.958;2022-09-09T03:59:22;100019.05;;;13.39;86.62
54600;BME280;40500;51.084;16.958;2022-09-09T04:02:02;100023.00;;;13.37;86.59
54600;BME280;40500;51.084;16.958;2022-09-09T04:04:39;100024.80;;;13.35;86.56
54600;BME280;40500;51.084;16.958;2022-09-09T04:07:10;100029.95;;;13.34;86.51
54600;BME280;40500;51.084;16.958;2022-09-09T04:09:42;100028.76;;;13.33;86.56
54600;BME280;40500;51.084;16.958;2022-09-09T04:12:27;100031.90;;;13.33;86.71
54600;BME280;40500;51.084;16.958;2022-09-09T04:15:01;100032.46;;;13.33;86.76
54600;BME280;40500;51.084;16.958;2022-09-09T04:17:33;100036.40;;;13.31;86.76
54600;BME280;40500;51.084;16.958;2022-09-09T04:20:08;100043.29;;;13.29;86.87
54600;BME280;40500;51.084;16.958;2022-09-09T04:22:40;100043.84;;;13.28;86.93
54600;BME280;40500;51.084;16.958;2022-09-09T04:25:11;100046.18;;;13.26;86.93
54600;BME280;40500;51.084;16.958;2022-09-09T04:27:44;100043.41;;;13.25;87.05
54600;BME280;40500;51.084;16.958;2022-09-09T04:30:16;100044.24;;;13.26;87.22
54600;BME280;40500;51.084;16.958;2022-09-09T04:32:47;100044.95;;;13.26;87.28
54600;BME280;40500;51.084;16.958;2022-09-09T04:35:22;100046.02;;;13.25;87.34
54600;BME280;40500;51.084;16.958;2022-09-09T04:37:54;100045.85;;;13.26;87.40
54600;BME280;40500;51.084;16.958;2022-09-09T04:40:25;100045.82;;;13.26;87.47
54600;BME280;40500;51.084;16.958;2022-09-09T04:42:58;100050.52;;;13.28;87.65
54600;BME280;40500;51.084;16.958;2022-09-09T04:45:29;100046.52;;;13.32;87.66
54600;BME280;40500;51.084;16.958;2022-09-09T04:48:00;100051.16;;;13.36;87.78
54600;BME280;40500;51.084;16.958;2022-09-09T04:50:32;100049.96;;;13.40;87.93
54600;BME280;40500;51.084;16.958;2022-09-09T04:53:05;100049.11;;;13.45;87.93
54600;BME280;40500;51.084;16.958;2022-09-09T04:55:37;100041.29;;;13.48;87.94
54600;BME280;40500;51.084;16.958;2022-09-09T04:58:11;100044.88;;;13.51;87.91
54600;BME280;40500;51.084;16.958;2022-09-09T05:00:43;100045.98;;;13.55;87.99
54600;BME280;40500;51.084;16.958;2022-09-09T05:03:17;100048.48;;;13.59;88.02
54600;BME280;40500;51.084;16.958;2022-09-09T05:05:48;100052.42;;;13.62;88.08
54600;BME280;40500;51.084;16.958;2022-09-09T05:08:23;100051.45;;;13.64;87.92
54600;BME280;40500;51.084;16.958;2022-09-09T05:10:54;100052.56;;;13.68;88.03
54600;BME280;40500;51.084;16.958;2022-09-09T05:13:26;100058.86;;;13.74;88.17
54600;BME280;40500;51.084;16.958;2022-09-09T05:16:00;100059.70;;;13.80;88.12
54600;BME280;40500;51.084;16.958;2022-09-09T05:18:33;100061.42;;;13.86;88.28
54600;BME280;40500;51.084;16.958;2022-09-09T05:21:05;100065.80;;;13.92;88.22
54600;BME280;40500;51.084;16.958;2022-09-09T05:23:37;100068.91;;;13.99;88.25
54600;BME280;40500;51.084;16.958;2022-09-09T05:26:14;100066.06;;;14.05;88.41
54600;BME280;40500;51.084;16.958;2022-09-09T05:28:46;100067.22;;;14.12;88.38
54600;BME280;40500;51.084;16.958;2022-09-09T05:31:18;100064.89;;;14.18;88.34
54600;BME280;40500;51.084;16.958;2022-09-09T05:33:49;100062.51;;;14.25;88.43
54600;BME280;40500;51.084;16.958;2022-09-09T05:36:22;100068.60;;;14.32;88.45
54600;BME280;40500;51.084;16.958;2022-09-09T05:38:53;100072.73;;;14.39;88.42
54600;BME280;40500;51.084;16.958;2022-09-09T05:41:23;100069.70;;;14.45;88.32
54600;BME280;40500;51.084;16.958;2022-09-09T05:43:55;100069.78;;;14.52;88.33
54600;BME280;40500;51.084;16.958;2022-09-09T05:46:28;100073.58;;;14.60;88.27
54600;BME280;40500;51.084;16.958;2022-09-09T05:48:59;100073.52;;;14.67;88.37
54600;BME280;40500;51.084;16.958;2022-09-09T05:51:33;100067.95;;;14.74;88.37
54600;BME280;40500;51.084;16.958;2022-09-09T05:54:06;100067.84;;;14.82;88.39
54600;BME280;40500;51.084;16.958;2022-09-09T05:56:40;100063.06;;;14.91;88.36
54600;BME280;40500;51.084;16.958;2022-09-09T05:59:21;100066.94;;;15.00;88.37
54600;BME280;40500;51.084;16.958;2022-09-09T06:01:53;100070.48;;;15.08;88.38
54600;BME280;40500;51.084;16.958;2022-09-09T06:04:26;100069.66;;;15.16;88.36
54600;BME280;40500;51.084;16.958;2022-09-09T06:06:56;100069.85;;;15.46;88.38
54600;BME280;40500;51.084;16.958;2022-09-09T06:09:28;100071.64;;;16.20;88.18
54600;BME280;40500;51.084;16.958;2022-09-09T06:11:59;100067.74;;;16.79;87.47
54600;BME280;40500;51.084;16.958;2022-09-09T06:14:30;100060.80;;;17.02;86.88
54600;BME280;40500;51.084;16.958;2022-09-09T06:17:00;100057.92;;;16.96;86.50
54600;BME280;40500;51.084;16.958;2022-09-09T06:19:31;100058.72;;;16.94;86.58
54600;BME280;40500;51.084;16.958;2022-09-09T06:22:02;100059.12;;;16.97;86.51
54600;BME280;40500;51.084;16.958;2022-09-09T06:24:32;100056.37;;;16.99;86.27
54600;BME280;40500;51.084;16.958;2022-09-09T06:27:03;100058.11;;;17.03;86.21
54600;BME280;40500;51.084;16.958;2022-09-09T06:29:34;100058.59;;;17.08;85.87
54600;BME280;40500;51.084;16.958;2022-09-09T06:32:05;100058.90;;;17.13;85.60
54600;BME280;40500;51.084;16.958;2022-09-09T06:34:37;100060.80;;;17.21;85.22
54600;BME280;40500;51.084;16.958;2022-09-09T06:37:08;100058.81;;;17.29;85.09
54600;BME280;40500;51.084;16.958;2022-09-09T06:39:39;100062.70;;;17.36;85.07
54600;BME280;40500;51.084;16.958;2022-09-09T06:42:10;100066.21;;;17.41;84.88
54600;BME280;40500;51.084;16.958;2022-09-09T06:44:41;100067.65;;;17.44;84.80
54600;BME280;40500;51.084;16.958;2022-09-09T06:47:12;100069.42;;;17.44;84.67
54600;BME280;40500;51.084;16.958;2022-09-09T06:49:43;100066.74;;;17.44;84.58
54600;BME280;40500;51.084;16.958;2022-09-09T06:52:16;100063.87;;;17.48;84.55
54600;BME280;40500;51.084;16.958;2022-09-09T06:54:47;100069.52;;;17.56;84.45
54600;BME280;40500;51.084;16.958;2022-09-09T06:57:18;100068.45;;;17.63;84.32
54600;BME280;40500;51.084;16.958;2022-09-09T07:00:07;100065.11;;;17.73;84.20
54600;BME280;40500;51.084;16.958;2022-09-09T07:02:38;100064.90;;;17.81;83.96
54600;BME280;40500;51.084;16.958;2022-09-09T07:05:10;100066.02;;;17.87;83.71
54600;BME280;40500;51.084;16.958;2022-09-09T07:07:40;100063.98;;;17.92;83.35
54600;BME280;40500;51.084;16.958;2022-09-09T07:10:11;100068.01;;;18.00;82.96
54600;BME280;40500;51.084;16.958;2022-09-09T07:12:42;100071.08;;;18.09;82.68
54600;BME280;40500;51.084;16.958;2022-09-09T07:15:13;100067.69;;;18.16;82.34
54600;BME280;40500;51.084;16.958;2022-09-09T07:17:44;100067.98;;;18.24;82.09
54600;BME280;40500;51.084;16.958;2022-09-09T07:20:16;100070.91;;;18.32;81.72
54600;BME280;40500;51.084;16.958;2022-09-09T07:22:46;100062.54;;;18.40;81.16
54600;BME280;40500;51.084;16.958;2022-09-09T07:25:16;100068.33;;;18.51;80.89
54600;BME280;40500;51.084;16.958;2022-09-09T07:27:47;100067.06;;;18.61;80.92
54600;BME280;40500;51.084;16.958;2022-09-09T07:30:18;100065.86;;;18.70;80.84
54600;BME280;40500;51.084;16.958;2022-09-09T07:32:55;100064.98;;;18.76;80.48
54600;BME280;40500;51.084;16.958;2022-09-09T07:35:28;100062.11;;;18.84;80.06
54600;BME280;40500;51.084;16.958;2022-09-09T07:38:00;100064.55;;;18.91;79.61
54600;BME280;40500;51.084;16.958;2022-09-09T07:40:30;100068.93;;;18.99;79.24
54600;BME280;40500;51.084;16.958;2022-09-09T07:43:01;100068.20;;;19.06;78.88
54600;BME280;40500;51.084;16.958;2022-09-09T07:45:32;100074.23;;;19.15;78.59
54600;BME280;40500;51.084;16.958;2022-09-09T07:48:05;100077.48;;;19.20;78.27
54600;BME280;40500;51.084;16.958;2022-09-09T07:50:35;100081.04;;;19.26;78.03
54600;BME280;40500;51.084;16.958;2022-09-09T07:53:05;100080.88;;;19.32;77.74
54600;BME280;40500;51.084;16.958;2022-09-09T07:55:36;100083.01;;;19.39;77.33
54600;BME280;40500;51.084;16.958;2022-09-09T07:58:06;100082.91;;;19.44;77.04
54600;BME280;40500;51.084;16.958;2022-09-09T08:00:36;100076.14;;;19.46;76.83
54600;BME280;40500;51.084;16.958;2022-09-09T08:03:08;100077.80;;;19.52;76.56
54600;BME280;40500;51.084;16.958;2022-09-09T08:05:38;100075.52;;;19.57;76.41
54600;BME280;40500;51.084;16.958;2022-09-09T08:08:09;100078.05;;;19.63;76.07
54600;BME280;40500;51.084;16.958;2022-09-09T08:10:39;100080.79;;;19.67;75.88
54600;BME280;40500;51.084;16.958;2022-09-09T08:13:12;100077.77;;;19.71;75.58
54600;BME280;40500;51.084;16.958;2022-09-09T08:15:46;100074.56;;;19.77;75.40
54600;BME280;40500;51.084;16.958;2022-09-09T08:18:19;100075.76;;;19.84;75.12
54600;BME280;40500;51.084;16.958;2022-09-09T08:20:49;100070.15;;;19.89;74.69
54600;BME280;40500;51.084;16.958;2022-09-09T08:23:20;100068.66;;;19.96;74.21
54600;BME280;40500;51.084;16.958;2022-09-09T08:25:52;100073.34;;;19.98;73.91
54600;BME280;40500;51.084;16.958;2022-09-09T08:28:22;100070.77;;;20.02;73.80
54600;BME280;40500;51.084;16.958;2022-09-09T08:30:52;100068.04;;;20.06;73.36
54600;BME280;40500;51.084;16.958;2022-09-09T08:33:23;100064.45;;;20.12;72.82
54600;BME280;40500;51.084;16.958;2022-09-09T08:35:54;100063.79;;;20.18;72.32
54600;BME280;40500;51.084;16.958;2022-09-09T08:38:25;100059.37;;;20.23;71.66
54600;BME280;40500;51.084;16.958;2022-09-09T08:41:00;100062.05;;;20.31;70.99
54600;BME280;40500;51.084;16.958;2022-09-09T08:43:34;100063.02;;;20.39;70.61
54600;BME280;40500;51.084;16.958;2022-09-09T08:46:09;100071.46;;;20.43;70.45
54600;BME280;40500;51.084;16.958;2022-09-09T08:48:51;100074.74;;;20.50;69.99
54600;BME280;40500;51.084;16.958;2022-09-09T08:51:26;100075.23;;;20.57;69.57
54600;BME280;40500;51.084;16.958;2022-09-09T08:53:59;100073.98;;;20.57;68.66
54600;BME280;40500;51.084;16.958;2022-09-09T08:56:33;100078.88;;;20.59;68.64
54600;BME280;40500;51.084;16.958;2022-09-09T08:59:04;100079.38;;;20.59;68.28
54600;BME280;40500;51.084;16.958;2022-09-09T09:01:53;100074.71;;;20.57;67.81
54600;BME280;40500;51.084;16.958;2022-09-09T09:04:55;100077.76;;;20.60;67.18
54600;BME280;40500;51.084;16.958;2022-09-09T09:07:37;100082.72;;;20.63;67.29
54600;BME280;40500;51.084;16.958;2022-09-09T09:10:19;100086.75;;;20.67;67.30
54600;BME280;40500;51.084;16.958;2022-09-09T09:13:14;100085.79;;;20.65;66.72
54600;BME280;40500;51.084;16.958;2022-09-09T09:15:48;100080.91;;;20.66;66.90
54600;BME280;40500;51.084;16.958;2022-09-09T09:18:20;100081.10;;;20.66;66.52
54600;BME280;40500;51.084;16.958;2022-09-09T09:20:57;100079.94;;;20.65;66.48
54600;BME280;40500;51.084;16.958;2022-09-09T09:23:36;100079.66;;;20.66;66.13
54600;BME280;40500;51.084;16.958;2022-09-09T09:26:11;100080.08;;;20.68;66.01
54600;BME280;40500;51.084;16.958;2022-09-09T09:28:41;100078.31;;;20.68;65.71
54600;BME280;40500;51.084;16.958;2022-09-09T09:31:13;100080.20;;;20.68;65.20
54600;BME280;40500;51.084;16.958;2022-09-09T09:33:50;100077.79;;;20.70;65.06
54600;BME280;40500;51.084;16.958;2022-09-09T09:36:25;100077.61;;;20.70;65.03
54600;BME280;40500;51.084;16.958;2022-09-09T09:39:04;100080.79;;;20.71;64.80
54600;BME280;40500;51.084;16.958;2022-09-09T09:41:54;100075.35;;;20.72;64.80
54600;BME280;40500;51.084;16.958;2022-09-09T09:44:27;100079.21;;;20.76;64.83
54600;BME280;40500;51.084;16.958;2022-09-09T09:47:10;100076.88;;;20.79;64.44
54600;BME280;40500;51.084;16.958;2022-09-09T09:49:52;100078.79;;;20.80;64.05
54600;BME280;40500;51.084;16.958;2022-09-09T09:52:25;100080.97;;;20.82;63.97
54600;BME280;40500;51.084;16.958;2022-09-09T09:54:58;100081.42;;;20.83;63.94
54600;BME280;40500;51.084;16.958;2022-09-09T09:57:36;100083.16;;;20.86;63.92
54600;BME280;40500;51.084;16.958;2022-09-09T10:00:15;100080.77;;;20.90;63.89
54600;BME280;40500;51.084;16.958;2022-09-09T10:02:47;100082.02;;;20.93;63.61
54600;BME280;40500;51.084;16.958;2022-09-09T10:05:22;100078.34;;;20.95;63.41
54600;BME280;40500;51.084;16.958;2022-09-09T10:08:12;100079.15;;;20.99;63.03
54600;BME280;40500;51.084;16.958;2022-09-09T10:10:57;100081.98;;;21.02;62.90
54600;BME280;40500;51.084;16.958;2022-09-09T10:13:38;100078.79;;;21.02;62.48
54600;BME280;40500;51.084;16.958;2022-09-09T10:16:21;100081.59;;;21.00;62.34
54600;BME280;40500;51.084;16.958;2022-09-09T10:19:00;100080.94;;;20.99;62.20
54600;BME280;40500;51.084;16.958;2022-09-09T10:21:56;100079.27;;;20.98;62.17
54600;BME280;40500;51.084;16.958;2022-09-09T10:24:42;100079.68;;;20.97;61.99
54600;BME280;40500;51.084;16.958;2022-09-09T10:27:21;100081.59;;;20.98;61.95
54600;BME280;40500;51.084;16.958;2022-09-09T10:30:12;100076.77;;;21.00;61.78
54600;BME280;40500;51.084;16.958;2022-09-09T10:32:47;100072.83;;;21.04;61.69
54600;BME280;40500;51.084;16.958;2022-09-09T10:35:30;100068.08;;;21.05;61.64
54600;BME280;40500;51.084;16.958;2022-09-09T10:38:12;100067.79;;;21.07;61.79
54600;BME280;40500;51.084;16.958;2022-09-09T10:40:50;100070.43;;;21.08;61.65
54600;BME280;40500;51.084;16.958;2022-09-09T10:43:42;100066.50;;;21.08;61.50
54600;BME280;40500;51.084;16.958;2022-09-09T10:46:25;100064.73;;;21.08;61.28
54600;BME280;40500;51.084;16.958;2022-09-09T10:49:13;100068.36;;;21.09;61.23
54600;BME280;40500;51.084;16.958;2022-09-09T10:51:55;100068.90;;;21.12;61.29
54600;BME280;40500;51.084;16.958;2022-09-09T10:54:41;100069.40;;;21.15;61.21
54600;BME280;40500;51.084;16.958;2022-09-09T10:57:19;100066.33;;;21.19;61.10
54600;BME280;40500;51.084;16.958;2022-09-09T10:59:56;100062.27;;;21.21;60.85
54600;BME280;40500;51.084;16.958;2022-09-09T11:02:30;100057.19;;;21.27;60.91
54600;BME280;40500;51.084;16.958;2022-09-09T11:05:03;100056.26;;;21.33;60.86
54600;BME280;40500;51.084;16.958;2022-09-09T11:07:39;100056.41;;;21.39;60.54
54600;BME280;40500;51.084;16.958;2022-09-09T11:10:16;100058.84;;;21.46;60.35
54600;BME280;40500;51.084;16.958;2022-09-09T11:12:50;100060.23;;;21.49;60.27
54600;BME280;40500;51.084;16.958;2022-09-09T11:15:28;100064.91;;;21.54;60.18
54600;BME280;40500;51.084;16.958;2022-09-09T11:18:03;100065.70;;;21.61;59.66
54600;BME280;40500;51.084;16.958;2022-09-09T11:20:35;100059.49;;;21.68;59.54
54600;BME280;40500;51.084;16.958;2022-09-09T11:23:09;100062.86;;;21.79;59.39
54600;BME280;40500;51.084;16.958;2022-09-09T11:25:45;100062.85;;;21.90;59.31
54600;BME280;40500;51.084;16.958;2022-09-09T11:28:31;100065.44;;;22.01;59.03
54600;BME280;40500;51.084;16.958;2022-09-09T11:31:20;100061.23;;;22.08;58.47
54600;BME280;40500;51.084;16.958;2022-09-09T11:33:59;100062.11;;;22.11;58.47
54600;BME280;40500;51.084;16.958;2022-09-09T11:36:56;100064.77;;;22.14;58.02
54600;BME280;40500;51.084;16.958;2022-09-09T11:39:51;100060.52;;;22.21;57.71
54600;BME280;40500;51.084;16.958;2022-09-09T11:42:26;100052.45;;;22.32;57.37
54600;BME280;40500;51.084;16.958;2022-09-09T11:44:56;100054.85;;;22.41;57.34
54600;BME280;40500;51.084;16.958;2022-09-09T11:47:30;100052.52;;;22.51;57.12
54600;BME280;40500;51.084;16.958;2022-09-09T11:50:26;100051.42;;;22.62;56.64
54600;BME280;40500;51.084;16.958;2022-09-09T11:53:19;100052.70;;;22.69;56.64
54600;BME280;40500;51.084;16.958;2022-09-09T11:58:58;100056.50;;;22.85;56.14
54600;BME280;40500;51.084;16.958;2022-09-09T12:01:41;100057.88;;;22.88;56.16
54600;BME280;40500;51.084;16.958;2022-09-09T12:04:21;100052.11;;;22.89;55.20
54600;BME280;40500;51.084;16.958;2022-09-09T12:07:00;100052.54;;;22.83;55.15
54600;BME280;40500;51.084;16.958;2022-09-09T12:09:47;100050.78;;;22.80;55.43
54600;BME280;40500;51.084;16.958;2022-09-09T12:12:33;100050.90;;;22.79;55.49
54600;BME280;40500;51.084;16.958;2022-09-09T12:15:25;100049.95;;;22.75;55.43
54600;BME280;40500;51.084;16.958;2022-09-09T12:17:58;100051.08;;;22.74;56.00
54600;BME280;40500;51.084;16.958;2022-09-09T12:20:36;100051.97;;;22.82;55.81
54600;BME280;40500;51.084;16.958;2022-09-09T12:23:24;100043.30;;;22.95;56.28
54600;BME280;40500;51.084;16.958;2022-09-09T12:26:07;100042.45;;;23.05;56.27
54600;BME280;40500;51.084;16.958;2022-09-09T12:28:54;100036.71;;;23.15;55.89
54600;BME280;40500;51.084;16.958;2022-09-09T12:31:29;100039.77;;;23.29;55.98
54600;BME280;40500;51.084;16.958;2022-09-09T12:34:11;100047.92;;;23.44;55.80
54600;BME280;40500;51.084;16.958;2022-09-09T12:36:45;100041.70;;;23.58;55.44
54600;BME280;40500;51.084;16.958;2022-09-09T12:39:28;100044.94;;;23.67;55.57
54600;BME280;40500;51.084;16.958;2022-09-09T12:42:00;100040.46;;;23.72;55.09
54600;BME280;40500;51.084;16.958;2022-09-09T12:44:33;100042.04;;;23.72;55.12
54600;BME280;40500;51.084;16.958;2022-09-09T12:47:04;100045.66;;;23.79;55.06
54600;BME280;40500;51.084;16.958;2022-09-09T12:49:37;100052.70;;;23.87;54.70
54600;BME280;40500;51.084;16.958;2022-09-09T12:52:13;100051.88;;;23.94;54.42
54600;BME280;40500;51.084;16.958;2022-09-09T12:54:46;100048.99;;;23.98;54.19
54600;BME280;40500;51.084;16.958;2022-09-09T12:57:17;100047.73;;;24.05;53.87
54600;BME280;40500;51.084;16.958;2022-09-09T12:59:47;100037.68;;;24.06;53.28
54600;BME280;40500;51.084;16.958;2022-09-09T13:02:26;100036.57;;;23.97;53.14
54600;BME280;40500;51.084;16.958;2022-09-09T13:05:08;100042.42;;;23.91;53.25
54600;BME280;40500;51.084;16.958;2022-09-09T13:07:44;100047.46;;;23.85;53.78
54600;BME280;40500;51.084;16.958;2022-09-09T13:10:19;100042.69;;;23.92;54.50
54600;BME280;40500;51.084;16.958;2022-09-09T13:13:05;100037.37;;;23.92;53.87
54600;BME280;40500;51.084;16.958;2022-09-09T13:15:50;100031.30;;;23.96;54.11
54600;BME280;40500;51.084;16.958;2022-09-09T13:18:23;100027.48;;;24.03;54.19
54600;BME280;40500;51.084;16.958;2022-09-09T13:20:54;100023.66;;;24.14;54.49
54600;BME280;40500;51.084;16.958;2022-09-09T13:23:29;100016.58;;;24.26;54.36
54600;BME280;40500;51.084;16.958;2022-09-09T13:26:02;100016.73;;;24.40;54.12
54600;BME280;40500;51.084;16.958;2022-09-09T13:28:33;100021.19;;;24.49;54.32
54600;BME280;40500;51.084;16.958;2022-09-09T13:31:05;100026.23;;;24.61;53.92